createdAt,value
2019-02-04T00:00:39.423Z,5.70
2019-02-04T00:03:11.494Z,6.10
2019-02-04T00:05:40.055Z,6.20
2019-02-04T00:08:09.172Z,5.37
2019-02-04T00:10:37.767Z,5.50
2019-02-04T00:13:07.068Z,6.77
2019-02-04T00:15:36.112Z,6.17
2019-02-04T00:18:06.587Z,6.53
2019-02-04T00:20:35.327Z,6.90
2019-02-04T00:23:03.996Z,5.73
2019-02-04T00:25:32.759Z,4.90
2019-02-04T00:28:01.325Z,12.17
2019-02-04T00:30:30.191Z,7.43
2019-02-04T00:32:59.128Z,5.33
2019-02-04T00:35:27.736Z,6.80
2019-02-04T00:37:56.787Z,6.07
2019-02-04T00:40:27.856Z,6.60
2019-02-04T00:42:56.616Z,8.47
2019-02-04T00:45:25.312Z,7.23
2019-02-04T00:47:53.975Z,5.40
2019-02-04T00:50:23.370Z,8.17
2019-02-04T00:52:51.934Z,5.77
2019-02-04T00:55:21.172Z,5.03
2019-02-04T00:57:49.960Z,5.60
2019-02-04T01:00:24.330Z,4.93
2019-02-04T01:02:53.272Z,6.50
2019-02-04T01:05:22.212Z,5.20
2019-02-04T01:07:51.284Z,7.40
2019-02-04T01:10:23.048Z,7.10
2019-02-04T01:12:51.944Z,6.77
2019-02-04T01:15:21.008Z,8.13
2019-02-04T01:17:49.672Z,8.90
2019-02-04T01:20:21.144Z,6.40
2019-02-04T01:22:49.760Z,5.83
2019-02-04T01:25:18.440Z,8.20
2019-02-04T01:27:47.439Z,6.67
2019-02-04T01:30:21.497Z,6.27
2019-02-04T01:32:50.168Z,5.97
2019-02-04T01:35:18.869Z,7.57
2019-02-04T01:37:47.887Z,7.23
2019-02-04T01:40:23.893Z,7.30
2019-02-04T01:42:53.088Z,8.10
2019-02-04T01:45:21.955Z,6.53
2019-02-04T01:47:50.579Z,9.50
2019-02-04T01:50:21.555Z,8.90
2019-02-04T01:52:50.546Z,8.50
2019-02-04T01:55:19.511Z,11.37
2019-02-04T01:57:50.588Z,8.00
2019-02-04T02:00:24.653Z,8.37
2019-02-04T02:02:53.583Z,6.33
2019-02-04T02:05:22.287Z,6.07
2019-02-04T02:07:51.244Z,6.00
2019-02-04T02:10:22.047Z,6.67
2019-02-04T02:12:51.196Z,8.30
2019-02-04T02:15:20.294Z,7.30
2019-02-04T02:17:49.484Z,9.83
2019-02-04T02:20:20.956Z,11.10
2019-02-04T02:22:49.943Z,6.43
2019-02-04T02:25:18.607Z,6.07
2019-02-04T02:27:47.093Z,11.23
2019-02-04T02:30:24.320Z,10.33
2019-02-04T02:32:52.857Z,8.47
2019-02-04T02:35:21.454Z,7.17
2019-02-04T02:37:49.981Z,9.73
2019-02-04T02:40:21.905Z,7.57
2019-02-04T02:42:50.428Z,8.50
2019-02-04T02:45:19.251Z,8.57
2019-02-04T02:47:47.788Z,12.73
2019-02-04T02:50:16.567Z,6.40
2019-02-04T02:52:45.095Z,6.87
2019-02-04T02:55:18.540Z,8.73
2019-02-04T02:57:47.408Z,10.13
2019-02-04T03:00:22.445Z,11.70
2019-02-04T03:02:51.116Z,10.93
2019-02-04T03:05:19.914Z,8.60
2019-02-04T03:07:48.784Z,6.83
2019-02-04T03:10:20.685Z,9.83
2019-02-04T03:12:49.399Z,9.13
2019-02-04T03:15:18.082Z,9.87
2019-02-04T03:17:51.973Z,9.77
2019-02-04T03:20:16.939Z,8.13
2019-02-04T03:22:45.622Z,7.23
2019-02-04T03:25:14.883Z,10.20
2019-02-04T03:27:43.935Z,7.20
2019-02-04T03:30:18.525Z,11.53
2019-02-04T03:32:47.048Z,8.43
2019-02-04T03:35:15.730Z,8.10
2019-02-04T03:37:44.250Z,6.87
2019-02-04T03:40:15.887Z,8.70
2019-02-04T03:42:44.503Z,11.03
2019-02-04T03:45:13.971Z,7.47
2019-02-04T03:47:42.940Z,7.77
2019-02-04T03:50:13.306Z,10.00
2019-02-04T03:52:41.872Z,12.17
2019-02-04T03:55:12.926Z,12.43
2019-02-04T03:57:41.891Z,12.10
2019-02-04T04:00:19.235Z,12.60
2019-02-04T04:02:47.847Z,11.50
2019-02-04T04:05:16.438Z,9.20
2019-02-04T04:07:45.454Z,10.97
2019-02-04T04:10:14.623Z,9.47
2019-02-04T04:12:43.170Z,15.33
2019-02-04T04:15:13.871Z,10.37
2019-02-04T04:17:42.834Z,10.60
2019-02-04T04:20:16.521Z,16.20
2019-02-04T04:22:45.643Z,10.40
2019-02-04T04:25:18.668Z,11.60
2019-02-04T04:27:47.675Z,8.70
2019-02-04T04:30:19.096Z,16.40
2019-02-04T04:32:47.786Z,11.83
2019-02-04T04:35:17.156Z,8.70
2019-02-04T04:37:45.753Z,14.47
2019-02-04T04:40:16.235Z,9.03
2019-02-04T04:42:45.842Z,13.20
2019-02-04T04:45:24.767Z,12.37
2019-02-04T04:47:53.798Z,8.20
2019-02-04T04:50:22.421Z,11.20
2019-02-04T04:52:51.019Z,13.07
2019-02-04T04:55:24.450Z,10.53
2019-02-04T04:57:52.995Z,11.50
2019-02-04T05:00:27.225Z,13.33
2019-02-04T05:02:55.846Z,18.60
2019-02-04T05:05:24.505Z,18.63
2019-02-04T05:07:53.130Z,16.23
2019-02-04T05:10:22.219Z,17.73
2019-02-04T05:12:50.860Z,20.03
2019-02-04T05:15:22.800Z,16.70
2019-02-04T05:17:52.623Z,14.07
2019-02-04T05:20:21.788Z,15.97
2019-02-04T05:22:50.476Z,9.90
2019-02-04T05:25:19.348Z,10.73
2019-02-04T05:27:48.038Z,11.70
2019-02-04T05:30:18.631Z,16.20
2019-02-04T05:32:47.174Z,13.30
2019-02-04T05:35:15.704Z,12.00
2019-02-04T05:37:44.336Z,11.70
2019-02-04T05:40:15.375Z,13.43
2019-02-04T05:42:44.370Z,10.47
2019-02-04T05:45:15.323Z,12.17
2019-02-04T05:47:43.931Z,11.70
2019-02-04T05:50:17.193Z,12.67
2019-02-04T05:52:45.598Z,14.10
2019-02-04T05:55:15.194Z,19.07
2019-02-04T05:57:43.820Z,14.30
2019-02-04T06:00:20.734Z,13.63
2019-02-04T06:02:49.268Z,13.20
2019-02-04T06:05:17.926Z,12.50
2019-02-04T06:07:46.477Z,10.57
2019-02-04T06:10:15.379Z,12.63
2019-02-04T06:12:43.999Z,13.00
2019-02-04T06:15:16.870Z,11.90
2019-02-04T06:17:45.491Z,11.73
2019-02-04T06:20:19.879Z,12.13
2019-02-04T06:22:48.411Z,12.47
2019-02-04T06:25:16.938Z,12.03
2019-02-04T06:27:45.554Z,12.03
2019-02-04T06:30:16.011Z,13.30
2019-02-04T06:32:44.534Z,16.50
2019-02-04T06:35:14.726Z,12.73
2019-02-04T06:37:43.620Z,12.60
2019-02-04T06:40:14.621Z,13.40
2019-02-04T06:42:43.150Z,18.43
2019-02-04T06:45:14.910Z,16.57
2019-02-04T06:47:43.995Z,20.67
2019-02-04T06:50:15.432Z,17.00
2019-02-04T06:52:44.103Z,12.80
2019-02-04T06:55:24.440Z,12.43
2019-02-04T06:57:53.044Z,16.53
2019-02-04T07:00:21.775Z,15.70
2019-02-04T07:02:50.462Z,14.30
2019-02-04T07:05:19.534Z,18.83
2019-02-04T07:07:48.153Z,20.10
2019-02-04T07:10:26.893Z,18.57
2019-02-04T07:12:55.681Z,18.83
2019-02-04T07:15:24.288Z,17.80
2019-02-04T07:17:53.121Z,21.03
2019-02-04T07:20:26.375Z,17.93
2019-02-04T07:22:55.046Z,15.13
2019-02-04T07:25:24.214Z,19.03
2019-02-04T07:27:52.842Z,17.23
2019-02-04T07:30:23.883Z,18.50
2019-02-04T07:32:52.873Z,18.03
2019-02-04T07:35:21.751Z,23.77
2019-02-04T07:37:50.547Z,17.70
2019-02-04T07:40:21.995Z,18.80
2019-02-04T07:42:51.891Z,18.63
2019-02-04T07:45:20.494Z,18.80
2019-02-04T07:47:49.578Z,20.37
2019-02-04T07:50:18.252Z,18.07
2019-02-04T07:52:46.914Z,22.50
2019-02-04T07:55:15.475Z,18.40
2019-02-04T07:57:44.410Z,22.33
2019-02-04T08:00:18.833Z,24.60
2019-02-04T08:02:47.826Z,17.13
2019-02-04T08:05:16.784Z,19.50
2019-02-04T08:07:45.388Z,17.70
2019-02-04T08:10:15.678Z,17.60
2019-02-04T08:12:44.276Z,18.57
2019-02-04T08:15:18.472Z,16.50
2019-02-04T08:17:47.066Z,20.70
2019-02-04T08:20:15.680Z,22.10
2019-02-04T08:22:44.274Z,24.30
2019-02-04T08:25:17.363Z,19.37
2019-02-04T08:27:46.027Z,20.57
2019-02-04T08:30:23.463Z,19.47
2019-02-04T08:32:51.986Z,23.63
2019-02-04T08:35:20.584Z,20.93
2019-02-04T08:37:49.568Z,23.63
2019-02-04T08:40:19.540Z,19.70
2019-02-04T08:42:48.189Z,22.23
2019-02-04T08:45:17.060Z,16.30
2019-02-04T08:47:45.674Z,13.43
2019-02-04T08:50:17.013Z,13.30
2019-02-04T08:52:45.627Z,10.90
2019-02-04T08:55:14.291Z,12.97
2019-02-04T08:57:42.978Z,11.87
2019-02-04T09:00:19.970Z,12.70
2019-02-04T09:02:48.656Z,10.90
2019-02-04T09:05:18.621Z,14.13
2019-02-04T09:07:47.216Z,11.30
2019-02-04T09:10:30.458Z,12.63
2019-02-04T09:12:59.431Z,12.97
2019-02-04T09:15:28.106Z,11.83
2019-02-04T09:17:57.599Z,12.87
2019-02-04T09:20:26.466Z,11.23
2019-02-04T09:22:55.510Z,12.40
2019-02-04T09:25:26.378Z,11.83
2019-02-04T09:27:56.639Z,14.67
2019-02-04T09:30:27.315Z,13.07
2019-02-04T09:32:57.976Z,13.33
2019-02-04T09:35:26.826Z,15.03
2019-02-04T09:37:55.451Z,13.00
2019-02-04T09:40:32.900Z,13.60
2019-02-04T09:43:01.793Z,14.50
2019-02-04T09:45:30.396Z,13.43
2019-02-04T09:47:58.927Z,16.30
2019-02-04T09:50:33.533Z,15.87
2019-02-04T09:53:02.201Z,16.23
2019-02-04T09:55:33.468Z,14.37
2019-02-04T09:58:02.076Z,14.07
2019-02-04T10:00:35.682Z,14.10
2019-02-04T10:03:05.279Z,16.23
2019-02-04T10:05:33.845Z,14.33
2019-02-04T10:08:02.734Z,17.30
2019-02-04T10:10:34.429Z,16.17
2019-02-04T10:13:03.392Z,18.47
2019-02-04T10:15:45.693Z,13.97
2019-02-04T10:18:13.742Z,15.50
2019-02-04T10:20:42.355Z,16.67
2019-02-04T10:23:10.977Z,15.37
2019-02-04T10:25:42.000Z,16.03
2019-02-04T10:28:12.157Z,23.70
2019-02-04T10:30:40.747Z,16.03
2019-02-04T10:33:09.632Z,15.50
2019-02-04T10:35:38.296Z,14.70
2019-02-04T10:38:07.750Z,16.00
2019-02-04T10:40:36.384Z,15.13
2019-02-04T10:43:05.215Z,12.97
2019-02-04T10:45:34.064Z,14.83
2019-02-04T10:48:02.680Z,13.97
2019-02-04T10:50:46.401Z,16.10
2019-02-04T10:53:11.792Z,11.47
2019-02-04T10:55:40.398Z,12.33
2019-02-04T10:58:11.315Z,11.37
2019-02-04T11:00:40.437Z,10.40
2019-02-04T11:03:09.079Z,10.53
2019-02-04T11:05:39.490Z,13.30
2019-02-04T11:08:10.438Z,13.37
2019-02-04T11:10:39.419Z,12.87
2019-02-04T11:13:16.233Z,11.93
2019-02-04T11:15:45.309Z,10.00
2019-02-04T11:18:14.890Z,10.07
2019-02-04T11:20:43.956Z,12.00
2019-02-04T11:23:12.499Z,10.47
2019-02-04T11:25:41.255Z,10.67
2019-02-04T11:28:10.524Z,9.90
2019-02-04T11:30:42.365Z,9.70
2019-02-04T11:33:11.013Z,8.43
2019-02-04T11:35:39.660Z,8.60
2019-02-04T11:38:08.341Z,11.93
2019-02-04T11:40:41.095Z,10.40
2019-02-04T11:43:11.099Z,8.60
2019-02-04T11:45:40.015Z,8.63
2019-02-04T11:48:11.304Z,10.53
2019-02-04T11:50:40.255Z,6.90
2019-02-04T11:53:09.560Z,7.07
2019-02-04T11:55:38.335Z,5.93
2019-02-04T11:58:08.192Z,13.30
2019-02-04T12:00:37.808Z,5.30
2019-02-04T12:03:09.206Z,4.53
2019-02-04T12:05:37.910Z,4.50
2019-02-04T12:08:07.083Z,4.43
2019-02-04T12:10:44.865Z,5.03
2019-02-04T12:13:13.692Z,6.07
2019-02-04T12:15:42.290Z,6.23
2019-02-04T12:18:10.997Z,5.20
2019-02-04T12:20:40.164Z,5.43
2019-02-04T12:23:09.169Z,4.40
2019-02-04T12:25:38.099Z,4.43
2019-02-04T12:28:06.766Z,3.63
2019-02-04T12:30:38.591Z,4.27
2019-02-04T12:33:09.257Z,4.83
2019-02-04T12:35:37.902Z,4.57
2019-02-04T12:38:06.598Z,3.57
2019-02-04T12:40:35.567Z,3.80
2019-02-04T12:43:04.579Z,4.27
2019-02-04T12:45:35.576Z,4.10
2019-02-04T12:48:04.949Z,3.30
2019-02-04T12:50:33.635Z,2.83
2019-02-04T12:53:02.234Z,4.00
2019-02-04T12:55:32.438Z,4.60
2019-02-04T12:58:01.039Z,3.50
2019-02-04T13:00:31.897Z,4.67
2019-02-04T13:03:00.496Z,4.60
2019-02-04T13:05:40.677Z,4.73
2019-02-04T13:08:10.582Z,4.87
2019-02-04T13:10:39.261Z,4.17
2019-02-04T13:13:09.715Z,5.13
2019-02-04T13:15:38.728Z,4.13
2019-02-04T13:18:07.475Z,3.63
2019-02-04T13:20:36.070Z,3.60
2019-02-04T13:23:05.804Z,3.17
2019-02-04T13:25:34.332Z,4.20
2019-02-04T13:28:03.033Z,3.80
2019-02-04T13:30:31.998Z,3.37
2019-02-04T13:33:00.628Z,2.90
2019-02-04T13:35:30.948Z,4.50
2019-02-04T13:37:59.822Z,3.30
2019-02-04T13:40:30.055Z,3.63
2019-02-04T13:42:58.738Z,3.60
2019-02-04T13:45:28.109Z,4.10
2019-02-04T13:47:56.999Z,3.57
2019-02-04T13:50:25.699Z,3.30
2019-02-04T13:52:55.467Z,3.23
2019-02-04T13:55:26.864Z,3.40
2019-02-04T13:57:55.526Z,4.77
2019-02-04T14:00:27.097Z,3.77
2019-02-04T14:02:59.389Z,5.50
2019-02-04T14:05:27.236Z,4.57
2019-02-04T14:07:55.895Z,3.40
2019-02-04T14:10:30.048Z,2.90
2019-02-04T14:12:58.581Z,3.47
2019-02-04T14:15:27.867Z,3.17
2019-02-04T14:17:56.868Z,4.10
2019-02-04T14:20:26.554Z,3.30
2019-02-04T14:22:55.522Z,3.50
2019-02-04T14:25:24.547Z,2.97
2019-02-04T14:27:53.181Z,3.90
2019-02-04T14:30:31.228Z,3.30
2019-02-04T14:32:59.849Z,3.20
2019-02-04T14:35:28.520Z,4.30
2019-02-04T14:37:57.417Z,3.33
2019-02-04T14:40:26.015Z,3.80
2019-02-04T14:42:59.849Z,3.57
2019-02-04T14:46:04.543Z,4.73
2019-02-04T14:48:55.484Z,3.57
2019-02-04T14:51:36.064Z,5.90
2019-02-04T14:54:37.983Z,3.37
2019-02-04T14:57:24.771Z,3.70
2019-02-04T14:59:56.471Z,2.83
2019-02-04T15:02:31.665Z,2.90
2019-02-04T15:05:20.260Z,3.30
2019-02-04T15:08:01.212Z,2.90
2019-02-04T15:10:41.735Z,3.03
2019-02-04T15:13:16.215Z,2.90
2019-02-04T15:15:59.941Z,3.10
2019-02-04T15:18:40.722Z,3.17
2019-02-04T15:21:18.219Z,5.47
2019-02-04T15:23:50.144Z,2.93
2019-02-04T15:26:27.612Z,2.70
2019-02-04T15:29:31.243Z,2.90
2019-02-04T15:32:14.860Z,3.10
2019-02-04T15:34:49.344Z,3.13
2019-02-04T15:37:23.496Z,2.80
2019-02-04T15:40:09.948Z,7.73
2019-02-04T15:42:47.101Z,3.10
2019-02-04T15:45:35.364Z,3.07
2019-02-04T15:48:04.252Z,3.07
2019-02-04T15:50:53.863Z,3.90
2019-02-04T15:53:22.418Z,3.23
2019-02-04T15:55:51.393Z,3.80
2019-02-04T15:58:20.278Z,3.90
2019-02-04T16:00:49.179Z,4.13
2019-02-04T16:03:17.836Z,4.63
2019-02-04T16:05:46.369Z,4.90
2019-02-04T16:08:14.933Z,5.50
2019-02-04T16:10:43.463Z,5.00
2019-02-04T16:13:12.028Z,5.53
2019-02-04T16:15:42.408Z,5.37
2019-02-04T16:18:11.181Z,8.73
2019-02-04T16:20:39.770Z,7.63
2019-02-04T16:23:08.459Z,6.47
2019-02-04T16:25:37.121Z,9.17
2019-02-04T16:28:05.799Z,9.57
2019-02-04T16:30:34.790Z,9.70
2019-02-04T16:33:03.721Z,9.37
2019-02-04T16:35:32.316Z,7.77
2019-02-04T16:38:01.051Z,15.23
2019-02-04T16:40:29.586Z,28.10
2019-02-04T16:42:58.478Z,13.97
2019-02-04T16:45:27.143Z,7.70
2019-02-04T16:47:56.051Z,6.60
2019-02-04T16:50:28.652Z,7.30
2019-02-04T16:53:09.708Z,6.60
2019-02-04T16:55:27.816Z,7.47
2019-02-04T16:57:56.404Z,6.67
2019-02-04T17:00:27.394Z,8.33
2019-02-04T17:02:55.923Z,5.07
2019-02-04T17:05:25.732Z,9.00
2019-02-04T17:07:54.396Z,9.57
2019-02-04T17:10:25.676Z,6.63
2019-02-04T17:12:55.312Z,6.00
2019-02-04T17:15:25.777Z,6.93
2019-02-04T17:17:54.538Z,10.77
2019-02-04T17:20:29.015Z,6.27
2019-02-04T17:22:57.544Z,5.50
2019-02-04T17:25:26.070Z,5.40
2019-02-04T17:27:54.697Z,4.87
2019-02-04T17:30:24.874Z,6.17
2019-02-04T17:32:53.945Z,6.00
2019-02-04T17:35:22.807Z,5.07
2019-02-04T17:37:51.440Z,5.33
2019-02-04T17:40:22.287Z,5.40
2019-02-04T17:42:53.027Z,6.67
2019-02-04T17:45:21.626Z,4.93
2019-02-04T17:47:51.316Z,6.97
2019-02-04T17:50:21.391Z,6.37
2019-02-04T17:52:50.183Z,5.30
2019-02-04T17:55:20.867Z,6.80
2019-02-04T17:57:49.504Z,4.77
2019-02-04T18:00:21.613Z,5.43
2019-02-04T18:02:50.681Z,5.60
2019-02-04T18:05:19.378Z,8.63
2019-02-04T18:07:47.915Z,6.23
2019-02-04T18:10:18.578Z,5.50
2019-02-04T18:12:47.498Z,5.20
2019-02-04T18:15:19.459Z,5.33
2019-02-04T18:17:48.160Z,5.27
2019-02-04T18:20:17.183Z,5.67
2019-02-04T18:22:45.710Z,5.10
2019-02-04T18:25:16.671Z,5.20
2019-02-04T18:27:45.280Z,5.50
2019-02-04T18:30:21.858Z,5.67
2019-02-04T18:32:50.516Z,7.37
2019-02-04T18:35:19.416Z,7.10
2019-02-04T18:37:48.092Z,35.33
2019-02-04T18:40:20.647Z,9.80
2019-02-04T18:42:49.578Z,7.07
2019-02-04T18:45:34.801Z,6.17
2019-02-04T18:48:03.464Z,7.97
2019-02-04T18:50:32.420Z,7.67
2019-02-04T18:53:01.024Z,7.83
2019-02-04T18:55:33.935Z,8.07
2019-02-04T18:58:02.934Z,8.13
2019-02-04T19:00:33.008Z,8.47
2019-02-04T19:03:03.104Z,6.87
2019-02-04T19:05:32.045Z,10.77
2019-02-04T19:08:00.675Z,11.53
2019-02-04T19:10:29.354Z,11.50
2019-02-04T19:12:57.911Z,30.27
2019-02-04T19:15:28.386Z,23.63
2019-02-04T19:18:05.955Z,14.00
2019-02-04T19:20:34.483Z,21.00
2019-02-04T19:23:03.165Z,27.83
2019-02-04T19:25:31.728Z,14.53
2019-02-04T19:28:00.258Z,10.17
2019-02-04T19:30:37.613Z,15.10
2019-02-04T19:33:06.718Z,11.47
2019-02-04T19:35:35.344Z,13.23
2019-02-04T19:38:04.041Z,11.60
2019-02-04T19:40:32.650Z,13.50
2019-02-04T19:43:01.219Z,28.93
2019-02-04T19:45:30.127Z,20.60
2019-02-04T19:47:58.687Z,19.43
2019-02-04T19:50:32.883Z,12.33
2019-02-04T19:53:01.939Z,18.43
2019-02-04T19:55:30.470Z,14.77
2019-02-04T19:57:59.095Z,12.57
2019-02-04T20:00:28.163Z,12.90
2019-02-04T20:02:57.093Z,10.70
2019-02-04T20:05:28.336Z,8.50
2019-02-04T20:07:57.555Z,12.00
2019-02-04T20:10:29.958Z,10.30
2019-02-04T20:12:58.515Z,12.30
2019-02-04T20:15:28.977Z,10.20
2019-02-04T20:17:58.022Z,10.20
2019-02-04T20:20:28.348Z,10.70
2019-02-04T20:22:57.309Z,11.10
2019-02-04T20:25:32.920Z,9.00
2019-02-04T20:28:01.971Z,10.80
2019-02-04T20:30:46.514Z,11.17
2019-02-04T20:33:12.906Z,12.43
2019-02-04T20:35:41.426Z,13.97
2019-02-04T20:38:10.919Z,10.27
2019-02-04T20:40:39.586Z,12.90
2019-02-04T20:43:08.846Z,12.40
2019-02-04T20:45:37.570Z,16.03
2019-02-04T20:48:11.559Z,9.00
2019-02-04T20:50:43.291Z,10.93
2019-02-04T20:53:12.086Z,11.70
2019-02-04T20:55:41.035Z,9.90
2019-02-04T20:58:09.702Z,12.03
2019-02-04T21:00:38.246Z,9.97
2019-02-04T21:03:06.899Z,9.47
2019-02-04T21:05:35.515Z,10.60
2019-02-04T21:08:04.979Z,10.10
2019-02-04T21:10:33.606Z,14.20
2019-02-04T21:13:02.199Z,11.30
2019-02-04T21:15:30.886Z,12.53
2019-02-04T21:17:59.415Z,12.97
2019-02-04T21:20:31.628Z,11.23
2019-02-04T21:23:00.215Z,16.87
2019-02-04T21:25:29.294Z,12.70
2019-02-04T21:27:57.984Z,15.43
2019-02-04T21:30:40.385Z,12.40
2019-02-04T21:33:08.979Z,13.30
2019-02-04T21:35:37.560Z,9.20
2019-02-04T21:38:06.303Z,12.70
2019-02-04T21:40:34.977Z,12.00
2019-02-04T21:43:03.983Z,12.10
2019-02-04T21:45:32.643Z,15.00
2019-02-04T21:48:01.265Z,9.47
2019-02-04T21:50:29.929Z,10.10
2019-02-04T21:52:58.875Z,10.40
2019-02-04T21:55:27.701Z,12.53
2019-02-04T21:57:56.318Z,12.07
2019-02-04T22:00:30.722Z,14.23
2019-02-04T22:02:59.342Z,12.83
2019-02-04T22:05:32.993Z,11.43
2019-02-04T22:08:01.912Z,13.37
2019-02-04T22:10:31.278Z,16.43
2019-02-04T22:13:00.334Z,11.70
2019-02-04T22:15:29.019Z,9.60
2019-02-04T22:17:57.686Z,13.10
2019-02-04T22:20:26.305Z,12.37
2019-02-04T22:22:55.190Z,14.57
2019-02-04T22:25:25.485Z,13.57
2019-02-04T22:27:54.079Z,14.30
2019-02-04T22:30:30.130Z,11.87
2019-02-04T22:32:58.896Z,13.80
2019-02-04T22:35:28.022Z,11.47
2019-02-04T22:37:56.881Z,15.97
2019-02-04T22:40:29.723Z,15.20
2019-02-04T22:42:58.910Z,15.50
2019-02-04T22:45:27.779Z,14.70
2019-02-04T22:47:56.330Z,13.70
2019-02-04T22:50:27.003Z,14.60
2019-02-04T22:52:55.594Z,15.10
2019-02-04T22:55:31.595Z,16.20
2019-02-04T22:57:54.628Z,15.63
2019-02-04T23:00:50.194Z,23.13
2019-02-04T23:03:24.782Z,16.67
2019-02-04T23:05:53.470Z,19.07
2019-02-04T23:08:22.003Z,18.93
2019-02-04T23:10:50.622Z,18.23
2019-02-04T23:13:19.209Z,22.70
2019-02-04T23:15:47.833Z,16.50
2019-02-04T23:18:16.354Z,19.50
2019-02-04T23:20:44.979Z,23.07
2019-02-04T23:23:13.503Z,19.40
2019-02-04T23:25:43.676Z,20.50
2019-02-04T23:28:12.527Z,23.10
2019-02-04T23:30:41.426Z,22.33
2019-02-04T23:33:10.024Z,21.10
2019-02-04T23:35:38.575Z,19.77
2019-02-04T23:38:07.347Z,17.80
2019-02-04T23:40:35.874Z,23.00
2019-02-04T23:43:05.428Z,20.17
2019-02-04T23:45:34.390Z,21.93
2019-02-04T23:48:03.199Z,23.10
2019-02-04T23:50:31.727Z,18.57
2019-02-04T23:53:00.346Z,23.80
2019-02-04T23:55:28.803Z,24.80
2019-02-04T23:57:57.414Z,26.03
